sensor_id;sensor_type;location;lat;lon;timestamp;temperature;humidity
18950;DHT22;9608;49.288;8.130;2022-08-19T00:00:49;22.20;99.90
18950;DHT22;9608;49.288;8.130;2022-08-19T00:03:16;22.20;99.90
18950;DHT22;9608;49.288;8.130;2022-08-19T00:05:43;22.20;99.90
18950;DHT22;9608;49.288;8.130;2022-08-19T00:08:10;22.20;99.90
18950;DHT22;9608;49.288;8.130;2022-08-19T00:10:38;22.20;99.90
18950;DHT22;9608;49.288;8.130;2022-08-19T00:13:05;22.20;99.90
18950;DHT22;9608;49.288;8.130;2022-08-19T00:15:32;22.20;99.90
18950;DHT22;9608;49.288;8.130;2022-08-19T00:17:59;22.20;99.90
18950;DHT22;9608;49.288;8.130;2022-08-19T00:20:26;22.20;99.90
18950;DHT22;9608;49.288;8.130;2022-08-19T00:22:52;22.20;99.90
18950;DHT22;9608;49.288;8.130;2022-08-19T00:25:21;22.10;99.90
18950;DHT22;9608;49.288;8.130;2022-08-19T00:27:49;22.10;99.90
18950;DHT22;9608;49.288;8.130;2022-08-19T00:30:15;22.20;99.90
18950;DHT22;9608;49.288;8.130;2022-08-19T00:32:43;22.20;99.90
18950;DHT22;9608;49.288;8.130;2022-08-19T00:35:09;22.10;99.90
18950;DHT22;9608;49.288;8.130;2022-08-19T00:37:37;22.10;99.90
18950;DHT22;9608;49.288;8.130;2022-08-19T00:40:10;22.10;99.90
18950;DHT22;9608;49.288;8.130;2022-08-19T00:42:37;22.10;99.90
18950;DHT22;9608;49.288;8.130;2022-08-19T00:45:09;22.10;99.90
18950;DHT22;9608;49.288;8.130;2022-08-19T00:47:36;22.00;99.90
18950;DHT22;9608;49.288;8.130;2022-08-19T00:50:04;22.00;99.90
18950;DHT22;9608;49.288;8.130;2022-08-19T00:52:34;22.00;99.90
18950;DHT22;9608;49.288;8.130;2022-08-19T00:55:02;22.00;99.90
18950;DHT22;9608;49.288;8.130;2022-08-19T00:57:34;21.90;99.90
18950;DHT22;9608;49.288;8.130;2022-08-19T01:00:06;22.00;99.90
18950;DHT22;9608;49.288;8.130;2022-08-19T01:02:35;22.00;99.90
18950;DHT22;9608;49.288;8.130;2022-08-19T01:05:05;22.00;99.90
18950;DHT22;9608;49.288;8.130;2022-08-19T01:07:33;22.00;99.90
18950;DHT22;9608;49.288;8.130;2022-08-19T01:10:00;22.00;99.90
18950;DHT22;9608;49.288;8.130;2022-08-19T01:12:27;22.00;99.90
18950;DHT22;9608;49.288;8.130;2022-08-19T01:14:55;22.00;99.90
18950;DHT22;9608;49.288;8.130;2022-08-19T01:17:24;22.00;99.90
18950;DHT22;9608;49.288;8.130;2022-08-19T01:19:50;21.90;99.90
18950;DHT22;9608;49.288;8.130;2022-08-19T01:22:25;21.90;99.90
18950;DHT22;9608;49.288;8.130;2022-08-19T01:24:52;21.90;99.90
18950;DHT22;9608;49.288;8.130;2022-08-19T01:27:19;21.90;99.90
18950;DHT22;9608;49.288;8.130;2022-08-19T01:29:46;21.90;99.90
18950;DHT22;9608;49.288;8.130;2022-08-19T01:32:16;21.90;99.90
18950;DHT22;9608;49.288;8.130;2022-08-19T01:34:44;21.90;99.90
18950;DHT22;9608;49.288;8.130;2022-08-19T01:37:13;22.00;99.90
18950;DHT22;9608;49.288;8.130;2022-08-19T01:39:42;22.00;99.90
18950;DHT22;9608;49.288;8.130;2022-08-19T01:42:09;22.00;99.90
18950;DHT22;9608;49.288;8.130;2022-08-19T01:44:37;22.00;99.90
18950;DHT22;9608;49.288;8.130;2022-08-19T01:47:06;21.90;99.90
18950;DHT22;9608;49.288;8.130;2022-08-19T01:49:33;21.90;99.90
18950;DHT22;9608;49.288;8.130;2022-08-19T01:52:00;21.90;99.90
18950;DHT22;9608;49.288;8.130;2022-08-19T01:54:27;21.80;99.90
18950;DHT22;9608;49.288;8.130;2022-08-19T01:57:00;21.70;99.90
18950;DHT22;9608;49.288;8.130;2022-08-19T01:59:28;21.70;99.90
18950;DHT22;9608;49.288;8.130;2022-08-19T02:01:56;21.80;99.90
18950;DHT22;9608;49.288;8.130;2022-08-19T02:04:22;21.90;99.90
18950;DHT22;9608;49.288;8.130;2022-08-19T02:06:50;21.90;99.90
18950;DHT22;9608;49.288;8.130;2022-08-19T02:09:17;21.90;99.90
18950;DHT22;9608;49.288;8.130;2022-08-19T02:11:44;21.90;99.90
18950;DHT22;9608;49.288;8.130;2022-08-19T02:14:12;21.90;99.90
18950;DHT22;9608;49.288;8.130;2022-08-19T02:16:39;21.90;99.90
18950;DHT22;9608;49.288;8.130;2022-08-19T02:19:06;21.90;99.90
18950;DHT22;9608;49.288;8.130;2022-08-19T02:21:34;21.80;99.90
18950;DHT22;9608;49.288;8.130;2022-08-19T02:24:01;21.80;99.90
18950;DHT22;9608;49.288;8.130;2022-08-19T02:26:28;21.80;99.90
18950;DHT22;9608;49.288;8.130;2022-08-19T02:28:55;21.80;99.90
18950;DHT22;9608;49.288;8.130;2022-08-19T02:31:25;21.80;99.90
18950;DHT22;9608;49.288;8.130;2022-08-19T02:33:53;21.70;99.90
18950;DHT22;9608;49.288;8.130;2022-08-19T02:36:21;21.70;99.90
18950;DHT22;9608;49.288;8.130;2022-08-19T02:38:48;21.70;99.90
18950;DHT22;9608;49.288;8.130;2022-08-19T02:41:17;21.70;99.90
18950;DHT22;9608;49.288;8.130;2022-08-19T02:43:44;21.70;99.90
18950;DHT22;9608;49.288;8.130;2022-08-19T02:46:13;21.70;99.90
18950;DHT22;9608;49.288;8.130;2022-08-19T02:48:41;21.60;99.90
18950;DHT22;9608;49.288;8.130;2022-08-19T02:51:09;21.60;99.90
18950;DHT22;9608;49.288;8.130;2022-08-19T02:53:41;21.50;99.90
18950;DHT22;9608;49.288;8.130;2022-08-19T02:56:08;21.50;99.90
18950;DHT22;9608;49.288;8.130;2022-08-19T02:58:35;21.50;99.90
18950;DHT22;9608;49.288;8.130;2022-08-19T03:01:02;21.40;99.90
18950;DHT22;9608;49.288;8.130;2022-08-19T03:03:29;21.40;99.90
18950;DHT22;9608;49.288;8.130;2022-08-19T03:06:06;21.40;99.90
18950;DHT22;9608;49.288;8.130;2022-08-19T03:08:34;21.30;99.90
18950;DHT22;9608;49.288;8.130;2022-08-19T03:11:01;21.30;99.90
18950;DHT22;9608;49.288;8.130;2022-08-19T03:13:28;21.30;99.90
18950;DHT22;9608;49.288;8.130;2022-08-19T03:15:55;21.20;99.90
18950;DHT22;9608;49.288;8.130;2022-08-19T03:18:22;21.20;99.90
18950;DHT22;9608;49.288;8.130;2022-08-19T03:20:51;21.20;99.90
18950;DHT22;9608;49.288;8.130;2022-08-19T03:23:21;21.20;99.90
18950;DHT22;9608;49.288;8.130;2022-08-19T03:25:50;21.10;99.90
18950;DHT22;9608;49.288;8.130;2022-08-19T03:28:17;21.10;99.90
18950;DHT22;9608;49.288;8.130;2022-08-19T03:30:56;21.10;99.90
18950;DHT22;9608;49.288;8.130;2022-08-19T03:33:24;21.10;99.90
18950;DHT22;9608;49.288;8.130;2022-08-19T03:36:02;21.20;99.90
18950;DHT22;9608;49.288;8.130;2022-08-19T03:38:31;21.20;99.90
18950;DHT22;9608;49.288;8.130;2022-08-19T03:41:03;21.20;99.90
18950;DHT22;9608;49.288;8.130;2022-08-19T03:43:32;21.30;99.90
18950;DHT22;9608;49.288;8.130;2022-08-19T03:46:04;21.30;99.90
18950;DHT22;9608;49.288;8.130;2022-08-19T03:48:31;21.30;99.90
18950;DHT22;9608;49.288;8.130;2022-08-19T03:50:58;21.30;99.90
18950;DHT22;9608;49.288;8.130;2022-08-19T03:53:26;21.40;99.90
18950;DHT22;9608;49.288;8.130;2022-08-19T03:55:55;21.30;99.90
18950;DHT22;9608;49.288;8.130;2022-08-19T03:58:23;21.30;99.90
18950;DHT22;9608;49.288;8.130;2022-08-19T04:00:50;21.20;99.90
18950;DHT22;9608;49.288;8.130;2022-08-19T04:03:17;21.20;99.90
18950;DHT22;9608;49.288;8.130;2022-08-19T04:05:45;21.20;99.90
18950;DHT22;9608;49.288;8.130;2022-08-19T04:08:12;21.20;99.90
18950;DHT22;9608;49.288;8.130;2022-08-19T04:10:40;21.20;99.90
18950;DHT22;9608;49.288;8.130;2022-08-19T04:13:08;21.20;99.90
18950;DHT22;9608;49.288;8.130;2022-08-19T04:15:39;21.10;99.90
18950;DHT22;9608;49.288;8.130;2022-08-19T04:18:07;21.20;99.90
18950;DHT22;9608;49.288;8.130;2022-08-19T04:20:39;21.20;99.90
18950;DHT22;9608;49.288;8.130;2022-08-19T04:23:06;21.20;99.90
18950;DHT22;9608;49.288;8.130;2022-08-19T04:25:36;21.20;99.90
18950;DHT22;9608;49.288;8.130;2022-08-19T04:28:03;21.20;99.90
18950;DHT22;9608;49.288;8.130;2022-08-19T04:30:37;21.20;99.90
18950;DHT22;9608;49.288;8.130;2022-08-19T04:33:04;21.20;99.90
18950;DHT22;9608;49.288;8.130;2022-08-19T04:35:35;21.20;99.90
18950;DHT22;9608;49.288;8.130;2022-08-19T04:38:02;21.20;99.90
18950;DHT22;9608;49.288;8.130;2022-08-19T04:40:29;21.20;99.90
18950;DHT22;9608;49.288;8.130;2022-08-19T04:43:14;21.20;99.90
18950;DHT22;9608;49.288;8.130;2022-08-19T04:45:42;21.20;99.90
18950;DHT22;9608;49.288;8.130;2022-08-19T04:48:09;21.20;99.90
18950;DHT22;9608;49.288;8.130;2022-08-19T04:50:40;21.20;99.90
18950;DHT22;9608;49.288;8.130;2022-08-19T04:53:07;21.20;99.90
18950;DHT22;9608;49.288;8.130;2022-08-19T04:55:33;21.30;99.90
18950;DHT22;9608;49.288;8.130;2022-08-19T04:58:01;21.30;99.90
18950;DHT22;9608;49.288;8.130;2022-08-19T05:00:27;21.30;99.90
18950;DHT22;9608;49.288;8.130;2022-08-19T05:02:55;21.30;99.90
18950;DHT22;9608;49.288;8.130;2022-08-19T05:05:22;21.40;99.90
18950;DHT22;9608;49.288;8.130;2022-08-19T05:07:49;21.40;99.90
18950;DHT22;9608;49.288;8.130;2022-08-19T05:10:16;21.50;99.90
18950;DHT22;9608;49.288;8.130;2022-08-19T05:12:43;21.50;99.90
18950;DHT22;9608;49.288;8.130;2022-08-19T05:15:10;21.40;99.90
18950;DHT22;9608;49.288;8.130;2022-08-19T05:17:37;21.40;99.90
18950;DHT22;9608;49.288;8.130;2022-08-19T05:20:25;21.40;99.90
18950;DHT22;9608;49.288;8.130;2022-08-19T05:23:10;21.50;99.90
18950;DHT22;9608;49.288;8.130;2022-08-19T05:25:39;21.50;99.90
18950;DHT22;9608;49.288;8.130;2022-08-19T05:28:06;21.60;99.90
18950;DHT22;9608;49.288;8.130;2022-08-19T05:30:33;21.70;99.90
18950;DHT22;9608;49.288;8.130;2022-08-19T05:33:00;21.80;99.90
18950;DHT22;9608;49.288;8.130;2022-08-19T05:35:28;21.90;99.90
18950;DHT22;9608;49.288;8.130;2022-08-19T05:37:56;22.10;99.90
18950;DHT22;9608;49.288;8.130;2022-08-19T05:40:23;22.20;99.90
18950;DHT22;9608;49.288;8.130;2022-08-19T05:42:49;22.30;99.90
18950;DHT22;9608;49.288;8.130;2022-08-19T05:45:17;22.30;99.90
18950;DHT22;9608;49.288;8.130;2022-08-19T05:47:44;22.40;99.90
18950;DHT22;9608;49.288;8.130;2022-08-19T05:50:10;22.50;99.90
18950;DHT22;9608;49.288;8.130;2022-08-19T05:52:39;22.50;99.90
18950;DHT22;9608;49.288;8.130;2022-08-19T05:55:07;22.50;99.90
18950;DHT22;9608;49.288;8.130;2022-08-19T05:57:33;22.50;99.90
18950;DHT22;9608;49.288;8.130;2022-08-19T06:00:00;22.50;99.90
18950;DHT22;9608;49.288;8.130;2022-08-19T06:02:28;22.50;99.90
18950;DHT22;9608;49.288;8.130;2022-08-19T06:04:55;22.60;99.90
18950;DHT22;9608;49.288;8.130;2022-08-19T06:07:22;22.60;99.90
18950;DHT22;9608;49.288;8.130;2022-08-19T06:09:50;22.60;99.90
18950;DHT22;9608;49.288;8.130;2022-08-19T06:12:17;22.60;99.90
18950;DHT22;9608;49.288;8.130;2022-08-19T06:14:44;22.60;99.90
18950;DHT22;9608;49.288;8.130;2022-08-19T06:17:11;22.60;99.90
18950;DHT22;9608;49.288;8.130;2022-08-19T06:19:38;22.70;99.90
18950;DHT22;9608;49.288;8.130;2022-08-19T06:22:06;22.70;99.90
18950;DHT22;9608;49.288;8.130;2022-08-19T06:24:33;22.70;99.90
18950;DHT22;9608;49.288;8.130;2022-08-19T06:27:03;22.70;99.90
18950;DHT22;9608;49.288;8.130;2022-08-19T06:29:31;22.70;99.90
18950;DHT22;9608;49.288;8.130;2022-08-19T06:32:01;22.70;99.90
18950;DHT22;9608;49.288;8.130;2022-08-19T06:34:30;22.70;99.90
18950;DHT22;9608;49.288;8.130;2022-08-19T06:36:59;22.80;99.90
18950;DHT22;9608;49.288;8.130;2022-08-19T06:39:28;22.80;99.90
18950;DHT22;9608;49.288;8.130;2022-08-19T06:41:57;22.90;99.90
18950;DHT22;9608;49.288;8.130;2022-08-19T06:44:28;22.90;99.90
18950;DHT22;9608;49.288;8.130;2022-08-19T06:47:03;23.00;99.90
18950;DHT22;9608;49.288;8.130;2022-08-19T06:49:30;23.00;99.90
18950;DHT22;9608;49.288;8.130;2022-08-19T06:51:58;23.10;99.90
18950;DHT22;9608;49.288;8.130;2022-08-19T06:54:25;23.10;99.90
18950;DHT22;9608;49.288;8.130;2022-08-19T06:56:53;23.20;99.90
18950;DHT22;9608;49.288;8.130;2022-08-19T06:59:22;23.20;99.90
18950;DHT22;9608;49.288;8.130;2022-08-19T07:01:55;23.30;99.90
18950;DHT22;9608;49.288;8.130;2022-08-19T07:04:26;23.40;99.90
18950;DHT22;9608;49.288;8.130;2022-08-19T07:06:58;23.50;99.90
18950;DHT22;9608;49.288;8.130;2022-08-19T07:09:25;23.50;99.90
18950;DHT22;9608;49.288;8.130;2022-08-19T07:11:53;23.50;99.90
18950;DHT22;9608;49.288;8.130;2022-08-19T07:14:22;23.40;99.90
18950;DHT22;9608;49.288;8.130;2022-08-19T07:16:51;23.50;99.90
18950;DHT22;9608;49.288;8.130;2022-08-19T07:19:22;23.50;99.90
18950;DHT22;9608;49.288;8.130;2022-08-19T07:21:50;23.60;99.90
18950;DHT22;9608;49.288;8.130;2022-08-19T07:24:19;23.60;99.90
18950;DHT22;9608;49.288;8.130;2022-08-19T07:26:46;23.70;99.90
18950;DHT22;9608;49.288;8.130;2022-08-19T07:29:13;23.80;99.90
18950;DHT22;9608;49.288;8.130;2022-08-19T07:31:40;23.80;99.90
18950;DHT22;9608;49.288;8.130;2022-08-19T07:34:09;23.80;99.90
18950;DHT22;9608;49.288;8.130;2022-08-19T07:36:39;23.80;99.90
18950;DHT22;9608;49.288;8.130;2022-08-19T07:39:08;23.90;99.90
18950;DHT22;9608;49.288;8.130;2022-08-19T07:41:36;23.80;99.90
18950;DHT22;9608;49.288;8.130;2022-08-19T07:44:04;23.90;99.90
18950;DHT22;9608;49.288;8.130;2022-08-19T07:46:34;24.00;99.90
18950;DHT22;9608;49.288;8.130;2022-08-19T07:49:01;24.00;99.90
18950;DHT22;9608;49.288;8.130;2022-08-19T07:51:28;24.00;99.90
18950;DHT22;9608;49.288;8.130;2022-08-19T07:53:57;24.10;99.90
18950;DHT22;9608;49.288;8.130;2022-08-19T07:56:23;24.20;99.90
18950;DHT22;9608;49.288;8.130;2022-08-19T07:58:51;24.20;99.90
18950;DHT22;9608;49.288;8.130;2022-08-19T08:01:21;24.20;99.90
18950;DHT22;9608;49.288;8.130;2022-08-19T08:03:48;24.30;99.90
18950;DHT22;9608;49.288;8.130;2022-08-19T08:06:33;24.40;99.90
18950;DHT22;9608;49.288;8.130;2022-08-19T08:09:22;24.40;99.90
18950;DHT22;9608;49.288;8.130;2022-08-19T08:11:52;24.50;99.90
18950;DHT22;9608;49.288;8.130;2022-08-19T08:14:21;24.50;99.90
18950;DHT22;9608;49.288;8.130;2022-08-19T08:16:49;24.50;99.90
18950;DHT22;9608;49.288;8.130;2022-08-19T08:19:17;24.60;99.90
18950;DHT22;9608;49.288;8.130;2022-08-19T08:21:45;24.60;99.90
18950;DHT22;9608;49.288;8.130;2022-08-19T08:24:12;24.70;99.90
18950;DHT22;9608;49.288;8.130;2022-08-19T08:26:41;24.80;99.90
18950;DHT22;9608;49.288;8.130;2022-08-19T08:29:09;24.90;99.90
18950;DHT22;9608;49.288;8.130;2022-08-19T08:31:39;24.90;99.90
18950;DHT22;9608;49.288;8.130;2022-08-19T08:34:07;24.90;99.90
18950;DHT22;9608;49.288;8.130;2022-08-19T08:36:36;24.90;99.90
18950;DHT22;9608;49.288;8.130;2022-08-19T08:39:06;24.90;99.90
18950;DHT22;9608;49.288;8.130;2022-08-19T08:41:37;25.00;99.90
18950;DHT22;9608;49.288;8.130;2022-08-19T08:44:13;25.10;99.90
18950;DHT22;9608;49.288;8.130;2022-08-19T08:46:44;25.50;99.90
18950;DHT22;9608;49.288;8.130;2022-08-19T08:49:23;25.60;99.90
18950;DHT22;9608;49.288;8.130;2022-08-19T08:51:52;25.70;99.90
18950;DHT22;9608;49.288;8.130;2022-08-19T08:54:24;25.80;99.90
18950;DHT22;9608;49.288;8.130;2022-08-19T08:56:53;25.90;99.90
18950;DHT22;9608;49.288;8.130;2022-08-19T08:59:25;26.10;99.90
18950;DHT22;9608;49.288;8.130;2022-08-19T09:01:52;26.10;99.90
18950;DHT22;9608;49.288;8.130;2022-08-19T09:04:20;25.90;99.90
18950;DHT22;9608;49.288;8.130;2022-08-19T09:06:53;25.60;99.90
18950;DHT22;9608;49.288;8.130;2022-08-19T09:09:26;25.70;99.90
18950;DHT22;9608;49.288;8.130;2022-08-19T09:12:05;25.80;99.90
18950;DHT22;9608;49.288;8.130;2022-08-19T09:14:42;25.70;99.90
18950;DHT22;9608;49.288;8.130;2022-08-19T09:17:11;25.60;99.90
18950;DHT22;9608;49.288;8.130;2022-08-19T09:19:52;25.70;99.90
18950;DHT22;9608;49.288;8.130;2022-08-19T09:22:19;25.90;99.90
18950;DHT22;9608;49.288;8.130;2022-08-19T09:24:48;25.70;99.90
18950;DHT22;9608;49.288;8.130;2022-08-19T09:27:15;25.70;99.90
18950;DHT22;9608;49.288;8.130;2022-08-19T09:29:43;25.90;99.90
18950;DHT22;9608;49.288;8.130;2022-08-19T09:32:10;26.40;99.90
18950;DHT22;9608;49.288;8.130;2022-08-19T09:34:37;26.70;99.90
18950;DHT22;9608;49.288;8.130;2022-08-19T09:37:04;26.90;99.90
18950;DHT22;9608;49.288;8.130;2022-08-19T09:39:31;27.30;99.90
18950;DHT22;9608;49.288;8.130;2022-08-19T09:41:58;27.60;99.90
18950;DHT22;9608;49.288;8.130;2022-08-19T09:44:25;27.40;99.90
18950;DHT22;9608;49.288;8.130;2022-08-19T09:46:53;27.40;99.90
18950;DHT22;9608;49.288;8.130;2022-08-19T09:49:20;27.20;99.90
18950;DHT22;9608;49.288;8.130;2022-08-19T09:51:49;27.30;99.90
18950;DHT22;9608;49.288;8.130;2022-08-19T09:54:17;27.50;99.90
18950;DHT22;9608;49.288;8.130;2022-08-19T09:56:43;27.50;99.90
18950;DHT22;9608;49.288;8.130;2022-08-19T09:59:10;27.40;99.90
18950;DHT22;9608;49.288;8.130;2022-08-19T10:01:38;27.60;99.90
18950;DHT22;9608;49.288;8.130;2022-08-19T10:04:06;27.70;99.90
18950;DHT22;9608;49.288;8.130;2022-08-19T10:06:37;27.80;99.90
18950;DHT22;9608;49.288;8.130;2022-08-19T10:09:05;27.70;99.90
18950;DHT22;9608;49.288;8.130;2022-08-19T10:11:34;27.70;99.90
18950;DHT22;9608;49.288;8.130;2022-08-19T10:14:02;27.60;99.90
18950;DHT22;9608;49.288;8.130;2022-08-19T10:16:31;27.50;99.90
18950;DHT22;9608;49.288;8.130;2022-08-19T10:18:58;27.40;99.90
18950;DHT22;9608;49.288;8.130;2022-08-19T10:21:29;27.30;99.90
18950;DHT22;9608;49.288;8.130;2022-08-19T10:23:58;27.40;99.90
18950;DHT22;9608;49.288;8.130;2022-08-19T10:26:26;27.40;99.90
18950;DHT22;9608;49.288;8.130;2022-08-19T10:28:54;27.30;99.90
18950;DHT22;9608;49.288;8.130;2022-08-19T10:31:23;27.10;99.90
18950;DHT22;9608;49.288;8.130;2022-08-19T10:33:51;27.10;99.90
18950;DHT22;9608;49.288;8.130;2022-08-19T10:36:21;27.20;99.90
18950;DHT22;9608;49.288;8.130;2022-08-19T10:38:51;27.20;99.90
18950;DHT22;9608;49.288;8.130;2022-08-19T10:41:21;27.30;99.90
18950;DHT22;9608;49.288;8.130;2022-08-19T10:43:50;27.30;99.90
18950;DHT22;9608;49.288;8.130;2022-08-19T10:46:18;27.20;99.90
18950;DHT22;9608;49.288;8.130;2022-08-19T10:48:45;27.10;99.90
18950;DHT22;9608;49.288;8.130;2022-08-19T10:51:12;27.00;99.90
18950;DHT22;9608;49.288;8.130;2022-08-19T10:54:09;27.00;99.90
18950;DHT22;9608;49.288;8.130;2022-08-19T10:56:36;27.20;99.90
18950;DHT22;9608;49.288;8.130;2022-08-19T10:59:18;27.60;99.90
18950;DHT22;9608;49.288;8.130;2022-08-19T11:01:46;28.20;99.90
18950;DHT22;9608;49.288;8.130;2022-08-19T11:04:14;28.60;99.90
18950;DHT22;9608;49.288;8.130;2022-08-19T11:06:43;29.00;99.90
18950;DHT22;9608;49.288;8.130;2022-08-19T11:09:14;29.20;99.90
18950;DHT22;9608;49.288;8.130;2022-08-19T11:11:42;29.30;99.90
18950;DHT22;9608;49.288;8.130;2022-08-19T11:14:11;29.20;99.90
18950;DHT22;9608;49.288;8.130;2022-08-19T11:16:39;28.90;99.90
18950;DHT22;9608;49.288;8.130;2022-08-19T11:19:08;28.50;99.90
18950;DHT22;9608;49.288;8.130;2022-08-19T11:21:36;28.30;99.90
18950;DHT22;9608;49.288;8.130;2022-08-19T11:24:07;28.50;99.90
18950;DHT22;9608;49.288;8.130;2022-08-19T11:26:36;29.00;99.90
18950;DHT22;9608;49.288;8.130;2022-08-19T11:29:05;29.10;99.90
18950;DHT22;9608;49.288;8.130;2022-08-19T11:31:34;29.30;99.90
18950;DHT22;9608;49.288;8.130;2022-08-19T11:34:04;29.30;99.90
18950;DHT22;9608;49.288;8.130;2022-08-19T11:36:31;29.40;99.90
18950;DHT22;9608;49.288;8.130;2022-08-19T11:38:58;29.30;99.90
18950;DHT22;9608;49.288;8.130;2022-08-19T11:41:25;29.40;99.90
18950;DHT22;9608;49.288;8.130;2022-08-19T11:43:54;29.30;99.90
18950;DHT22;9608;49.288;8.130;2022-08-19T11:46:22;29.20;99.90
18950;DHT22;9608;49.288;8.130;2022-08-19T11:48:50;29.00;99.90
18950;DHT22;9608;49.288;8.130;2022-08-19T11:51:20;28.90;99.90
18950;DHT22;9608;49.288;8.130;2022-08-19T11:53:48;28.60;99.90
18950;DHT22;9608;49.288;8.130;2022-08-19T11:56:16;28.50;99.90
18950;DHT22;9608;49.288;8.130;2022-08-19T11:58:43;28.50;99.90
18950;DHT22;9608;49.288;8.130;2022-08-19T12:01:12;28.60;99.90
18950;DHT22;9608;49.288;8.130;2022-08-19T12:03:41;28.70;98.50
18950;DHT22;9608;49.288;8.130;2022-08-19T12:06:11;28.50;98.00
18950;DHT22;9608;49.288;8.130;2022-08-19T12:08:39;28.50;98.30
18950;DHT22;9608;49.288;8.130;2022-08-19T12:11:07;28.50;97.80
18950;DHT22;9608;49.288;8.130;2022-08-19T12:13:34;28.70;97.90
18950;DHT22;9608;49.288;8.130;2022-08-19T12:16:07;29.00;96.80
18950;DHT22;9608;49.288;8.130;2022-08-19T12:18:36;29.20;97.40
18950;DHT22;9608;49.288;8.130;2022-08-19T12:21:03;29.10;96.90
18950;DHT22;9608;49.288;8.130;2022-08-19T12:23:30;29.20;95.90
18950;DHT22;9608;49.288;8.130;2022-08-19T12:25:57;29.10;96.50
18950;DHT22;9608;49.288;8.130;2022-08-19T12:28:24;29.20;95.60
18950;DHT22;9608;49.288;8.130;2022-08-19T12:30:51;29.20;95.60
18950;DHT22;9608;49.288;8.130;2022-08-19T12:33:19;29.00;96.10
18950;DHT22;9608;49.288;8.130;2022-08-19T12:35:51;29.00;96.40
18950;DHT22;9608;49.288;8.130;2022-08-19T12:38:18;28.90;96.20
18950;DHT22;9608;49.288;8.130;2022-08-19T12:40:47;29.00;96.30
18950;DHT22;9608;49.288;8.130;2022-08-19T12:43:15;29.00;96.10
18950;DHT22;9608;49.288;8.130;2022-08-19T12:45:42;29.10;96.20
18950;DHT22;9608;49.288;8.130;2022-08-19T12:48:10;29.00;95.80
18950;DHT22;9608;49.288;8.130;2022-08-19T12:50:39;29.00;96.20
18950;DHT22;9608;49.288;8.130;2022-08-19T12:53:07;28.80;96.50
18950;DHT22;9608;49.288;8.130;2022-08-19T12:55:34;28.70;96.30
18950;DHT22;9608;49.288;8.130;2022-08-19T12:58:00;28.80;95.90
18950;DHT22;9608;49.288;8.130;2022-08-19T13:00:28;28.80;95.50
18950;DHT22;9608;49.288;8.130;2022-08-19T13:02:58;28.80;95.80
18950;DHT22;9608;49.288;8.130;2022-08-19T13:05:27;28.70;96.00
18950;DHT22;9608;49.288;8.130;2022-08-19T13:07:56;28.70;96.30
18950;DHT22;9608;49.288;8.130;2022-08-19T13:10:29;28.70;96.00
18950;DHT22;9608;49.288;8.130;2022-08-19T13:12:57;28.80;95.90
18950;DHT22;9608;49.288;8.130;2022-08-19T13:15:25;29.10;95.70
18950;DHT22;9608;49.288;8.130;2022-08-19T13:17:54;29.40;95.70
18950;DHT22;9608;49.288;8.130;2022-08-19T13:20:22;29.70;95.20
18950;DHT22;9608;49.288;8.130;2022-08-19T13:22:49;29.90;94.00
18950;DHT22;9608;49.288;8.130;2022-08-19T13:25:17;29.90;93.80
18950;DHT22;9608;49.288;8.130;2022-08-19T13:27:47;30.00;93.70
18950;DHT22;9608;49.288;8.130;2022-08-19T13:30:17;30.20;93.60
18950;DHT22;9608;49.288;8.130;2022-08-19T13:33:03;30.40;93.40
18950;DHT22;9608;49.288;8.130;2022-08-19T13:35:41;30.70;92.70
18950;DHT22;9608;49.288;8.130;2022-08-19T13:38:08;30.90;92.10
18950;DHT22;9608;49.288;8.130;2022-08-19T13:40:36;30.90;92.20
18950;DHT22;9608;49.288;8.130;2022-08-19T13:43:05;30.60;92.70
18950;DHT22;9608;49.288;8.130;2022-08-19T13:45:33;30.50;92.70
18950;DHT22;9608;49.288;8.130;2022-08-19T13:48:01;30.40;92.60
18950;DHT22;9608;49.288;8.130;2022-08-19T13:50:32;30.10;92.80
18950;DHT22;9608;49.288;8.130;2022-08-19T13:53:00;30.00;92.80
18950;DHT22;9608;49.288;8.130;2022-08-19T13:55:27;29.90;93.10
18950;DHT22;9608;49.288;8.130;2022-08-19T13:57:56;29.70;93.30
18950;DHT22;9608;49.288;8.130;2022-08-19T14:00:30;29.50;93.60
18950;DHT22;9608;49.288;8.130;2022-08-19T14:02:57;29.30;94.00
18950;DHT22;9608;49.288;8.130;2022-08-19T14:05:25;29.20;94.60
18950;DHT22;9608;49.288;8.130;2022-08-19T14:07:53;29.20;94.20
18950;DHT22;9608;49.288;8.130;2022-08-19T14:10:21;29.10;94.50
18950;DHT22;9608;49.288;8.130;2022-08-19T14:12:49;29.10;94.60
18950;DHT22;9608;49.288;8.130;2022-08-19T14:15:18;29.10;94.60
18950;DHT22;9608;49.288;8.130;2022-08-19T14:17:46;29.10;94.20
18950;DHT22;9608;49.288;8.130;2022-08-19T14:20:15;29.10;94.50
18950;DHT22;9608;49.288;8.130;2022-08-19T14:22:43;29.10;94.20
18950;DHT22;9608;49.288;8.130;2022-08-19T14:25:13;29.00;94.30
18950;DHT22;9608;49.288;8.130;2022-08-19T14:27:41;29.00;94.40
18950;DHT22;9608;49.288;8.130;2022-08-19T14:30:11;29.00;94.80
18950;DHT22;9608;49.288;8.130;2022-08-19T14:32:40;29.20;94.50
18950;DHT22;9608;49.288;8.130;2022-08-19T14:35:11;29.30;94.20
18950;DHT22;9608;49.288;8.130;2022-08-19T14:37:40;29.50;94.20
18950;DHT22;9608;49.288;8.130;2022-08-19T14:40:08;29.70;93.40
18950;DHT22;9608;49.288;8.130;2022-08-19T14:42:35;29.90;93.00
18950;DHT22;9608;49.288;8.130;2022-08-19T14:45:03;30.00;92.50
18950;DHT22;9608;49.288;8.130;2022-08-19T14:47:31;30.00;92.30
18950;DHT22;9608;49.288;8.130;2022-08-19T14:49:58;30.30;92.10
18950;DHT22;9608;49.288;8.130;2022-08-19T14:52:26;30.50;91.60
18950;DHT22;9608;49.288;8.130;2022-08-19T14:54:53;30.70;91.70
18950;DHT22;9608;49.288;8.130;2022-08-19T14:57:20;30.70;91.10
18950;DHT22;9608;49.288;8.130;2022-08-19T14:59:48;30.90;90.80
18950;DHT22;9608;49.288;8.130;2022-08-19T15:02:15;30.90;90.70
18950;DHT22;9608;49.288;8.130;2022-08-19T15:04:41;30.80;90.50
18950;DHT22;9608;49.288;8.130;2022-08-19T15:07:09;31.00;90.90
18950;DHT22;9608;49.288;8.130;2022-08-19T15:09:37;31.30;89.80
18950;DHT22;9608;49.288;8.130;2022-08-19T15:12:04;31.30;89.10
18950;DHT22;9608;49.288;8.130;2022-08-19T15:14:31;31.20;87.90
18950;DHT22;9608;49.288;8.130;2022-08-19T15:17:01;31.20;86.90
18950;DHT22;9608;49.288;8.130;2022-08-19T15:19:28;31.20;87.90
18950;DHT22;9608;49.288;8.130;2022-08-19T15:21:55;31.10;87.70
18950;DHT22;9608;49.288;8.130;2022-08-19T15:24:22;31.00;84.80
18950;DHT22;9608;49.288;8.130;2022-08-19T15:26:52;30.90;85.60
18950;DHT22;9608;49.288;8.130;2022-08-19T15:29:19;30.90;84.60
18950;DHT22;9608;49.288;8.130;2022-08-19T15:31:45;30.70;84.10
18950;DHT22;9608;49.288;8.130;2022-08-19T15:34:12;30.50;84.00
18950;DHT22;9608;49.288;8.130;2022-08-19T15:36:39;30.40;84.20
18950;DHT22;9608;49.288;8.130;2022-08-19T15:39:06;30.30;83.80
18950;DHT22;9608;49.288;8.130;2022-08-19T15:41:35;30.30;84.40
18950;DHT22;9608;49.288;8.130;2022-08-19T15:44:06;30.30;84.90
18950;DHT22;9608;49.288;8.130;2022-08-19T15:46:35;30.50;83.60
18950;DHT22;9608;49.288;8.130;2022-08-19T15:49:03;30.50;82.70
18950;DHT22;9608;49.288;8.130;2022-08-19T15:51:32;30.60;82.30
18950;DHT22;9608;49.288;8.130;2022-08-19T15:54:00;30.70;81.00